Detroit, Michigan
Traffic Map
Current Weather Conditions
Detroit, Michigan
Few Clouds
Few Clouds
13°
Feels Like: 13°
Wind Chill: 13° Ceiling: Unl
Heat Index: 13° Visibility: 15mi
Dew Point: Wind: 10mph
Humidity: 41% Direction: 320° (NW)
Pressure: 30.12in Gusts: 17mph
Raw Report DataCYQG 221300Z 32009G15KT 15SM FEW110 13/M00 A3012 RMK AC1 AC TR SLP201
Traffic Incident Summary
Active as of:
Severity:
Category:
InformationThere was an issue retrieving the traffic information for this location. Please try a different location or try again shortly.
Advertisements
Track Severe Weather on mobile